Time;durP1;ratioP1;P1;durP2;ratioP2;P2;SDS_P1;SDS_P2;PMS_P1;PMS_P2;Temp;Humidity;BMP_temperature;BMP_pressure;BME280_temperature;BME280_humidity;BME280_pressure;Samples;Min_cycle;Max_cycle;Signal;HPM_P1;HPM_P2
2022/03/31 00:00:20;;;;;;;19.42;12.30;;;;;;;8.36;50.53;99508.28;683442;28;1478;-82
2022/03/31 00:00:43;;;;;;;19.60;11.90;;;;;;;8.35;50.56;99503.06;690698;28;985;-82
2022/03/31 00:01:03;;;;;;;21.08;11.98;;;;;;;8.34;50.72;99511.72;688263;28;1073;-82
2022/03/31 00:01:24;;;;;;;21.30;12.23;;;;;;;8.35;51.19;99513.44;686970;28;1310;-82
2022/03/31 00:01:44;;;;;;;19.65;12.00;;;;;;;8.30;50.69;99505.59;685295;28;1160;-83
2022/03/31 00:02:05;;;;;;;17.90;11.37;;;;;;;8.39;50.84;99514.38;688437;28;1238;-82
2022/03/31 00:02:25;;;;;;;15.70;11.05;;;;;;;8.34;51.11;99502.19;693360;28;1162;-82
2022/03/31 00:02:46;;;;;;;14.50;10.93;;;;;;;8.34;50.61;99502.19;690609;28;1131;-82
2022/03/31 00:03:09;;;;;;;18.13;11.63;;;;;;;8.36;50.53;99508.28;690596;28;1099;-82
2022/03/31 00:03:30;;;;;;;18.90;11.77;;;;;;;8.37;50.72;99524.78;685337;28;1049;-82
2022/03/31 00:03:50;;;;;;;20.53;11.63;;;;;;;8.29;50.83;99505.56;685288;28;1968;-83
2022/03/31 00:04:11;;;;;;;18.20;11.30;;;;;;;8.39;50.97;99520.47;687892;28;1065;-83
2022/03/31 00:04:32;;;;;;;19.15;11.38;;;;;;;8.42;50.64;99515.31;688024;28;976;-82
2022/03/31 00:04:52;;;;;;;18.03;11.53;;;;;;;8.38;51.04;99513.53;687979;28;1145;-82
2022/03/31 00:05:13;;;;;;;18.95;11.60;;;;;;;8.31;50.96;99501.28;691595;28;1277;-82
2022/03/31 00:05:34;;;;;;;20.15;11.52;;;;;;;8.45;51.09;99528.38;696195;28;1147;-82
2022/03/31 00:05:54;;;;;;;22.92;11.60;;;;;;;8.34;50.98;99506.50;689920;28;1536;-82
2022/03/31 00:06:15;;;;;;;24.87;11.67;;;;;;;8.44;51.17;99516.22;690436;28;1159;-82
2022/03/31 00:06:35;;;;;;;23.13;11.80;;;;;;;8.39;51.08;99517.88;687935;28;1185;-82
2022/03/31 00:06:56;;;;;;;20.83;12.00;;;;;;;8.40;50.93;99517.00;690743;28;835;-82
2022/03/31 00:07:16;;;;;;;18.30;12.18;;;;;;;8.36;50.67;99510.03;687857;28;1291;-83
2022/03/31 00:07:59;;;;;;;20.10;12.17;;;;;;;8.37;51.18;99514.38;687874;28;1071;-82
2022/03/31 00:08:21;;;;;;;18.60;11.70;;;;;;;8.35;50.93;99505.66;690665;28;1173;-82
2022/03/31 00:08:41;;;;;;;17.73;11.98;;;;;;;8.39;50.66;99517.88;688711;28;1687;-82
2022/03/31 00:09:02;;;;;;;18.65;12.02;;;;;;;8.38;50.74;99513.53;690417;28;1123;-83
2022/03/31 00:09:22;;;;;;;18.83;12.60;;;;;;;8.46;50.69;99521.44;696049;28;1268;-82
2022/03/31 00:09:43;;;;;;;19.45;12.30;;;;;;;8.40;50.78;99521.34;691502;28;1666;-82
2022/03/31 00:10:04;;;;;;;19.90;11.97;;;;;;;8.43;50.77;99516.19;688456;28;1219;-82
2022/03/31 00:10:29;;;;;;;19.43;11.70;;;;;;;8.38;50.62;99497.94;690779;28;780;-82
2022/03/31 00:10:53;;;;;;;19.13;11.50;;;;;;;8.50;50.60;99523.25;682604;28;1198;-82
2022/03/31 00:11:14;;;;;;;19.83;11.60;;;;;;;8.41;50.71;99503.16;692313;28;1492;-82
2022/03/31 00:11:34;;;;;;;23.07;11.83;;;;;;;8.44;50.31;99505.84;693481;28;1076;-84
2022/03/31 00:11:55;;;;;;;21.95;12.40;;;;;;;8.40;50.90;99504.03;696193;28;1373;-82
2022/03/31 00:12:15;;;;;;;24.45;12.27;;;;;;;8.46;50.66;99509.31;693647;28;1173;-82
2022/03/31 00:12:36;;;;;;;23.70;12.20;;;;;;;8.41;50.79;99503.16;690744;28;1234;-82
2022/03/31 00:12:58;;;;;;;22.67;11.50;;;;;;;8.47;50.52;99515.38;688095;28;1047;-83
2022/03/31 00:13:24;;;;;;;18.95;11.45;;;;;;;8.47;50.31;99507.59;687448;28;1540;-84
2022/03/31 00:13:45;;;;;;;18.20;11.57;;;;;;;8.39;50.74;99499.66;689257;28;949;-82
2022/03/31 00:14:06;;;;;;;16.85;12.10;;;;;;;8.44;50.60;99507.53;690562;28;1327;-82
2022/03/31 00:14:27;;;;;;;17.30;11.83;;;;;;;8.46;50.42;99500.63;687977;28;1126;-82
2022/03/31 00:14:48;;;;;;;16.35;11.90;;;;;;;8.44;50.51;99502.34;688032;28;745;-82
2022/03/31 00:15:09;;;;;;;15.90;11.70;;;;;;;8.40;50.54;99501.41;685147;28;1227;-81
2022/03/31 00:15:31;;;;;;;16.67;12.07;;;;;;;8.43;51.12;99496.28;684387;28;1720;-82
2022/03/31 00:15:57;;;;;;;16.10;11.85;;;;;;;8.52;50.97;99518.94;685341;28;811;-82
2022/03/31 00:16:18;;;;;;;17.88;11.60;;;;;;;8.55;50.52;99505.13;687886;28;1150;-82
2022/03/31 00:16:38;;;;;;;18.58;11.82;;;;;;;8.53;50.75;99502.50;687796;28;1575;-82
2022/03/31 00:16:59;;;;;;;20.07;12.10;;;;;;;8.49;50.85;99504.16;687800;28;1541;-82
2022/03/31 00:17:20;;;;;;;18.53;12.47;;;;;;;8.52;50.73;99507.69;683913;28;1459;-82
2022/03/31 00:17:41;;;;;;;20.35;12.40;;;;;;;8.49;50.69;99501.56;685203;28;978;-82
2022/03/31 00:18:04;;;;;;;17.88;11.70;;;;;;;8.56;50.50;99509.47;688068;28;1167;-82
2022/03/31 00:18:29;;;;;;;18.52;11.70;;;;;;;8.52;50.81;99507.69;690416;28;1270;-82
2022/03/31 00:18:50;;;;;;;17.50;11.55;;;;;;;8.44;50.94;99503.22;690409;28;832;-82
2022/03/31 00:19:10;;;;;;;18.30;11.73;;;;;;;8.47;50.66;99507.59;693112;28;1201;-82
2022/03/31 00:19:31;;;;;;;17.30;11.63;;;;;;;8.39;51.27;99491.88;692743;28;1201;-82
2022/03/31 00:19:51;;;;;;;19.13;11.83;;;;;;;8.43;50.69;99504.09;687659;28;1734;-82
2022/03/31 00:20:12;;;;;;;18.45;11.57;;;;;;;8.39;50.69;99501.38;692246;28;1181;-82
2022/03/31 00:20:33;;;;;;;19.70;11.50;;;;;;;8.36;51.18;99494.44;690673;28;968;-82
2022/03/31 00:20:53;;;;;;;17.70;11.80;;;;;;;8.43;51.10;99514.50;690845;28;814;-83
2022/03/31 00:21:14;;;;;;;21.23;12.15;;;;;;;8.39;51.37;99507.47;692436;28;1122;-82
2022/03/31 00:21:34;;;;;;;21.40;12.63;;;;;;;8.43;51.08;99511.88;693430;28;1313;-82
2022/03/31 00:21:55;;;;;;;22.63;12.63;;;;;;;8.38;51.21;99497.94;686991;28;1134;-81
2022/03/31 00:22:15;;;;;;;19.92;12.43;;;;;;;8.34;51.32;99490.91;690029;28;1155;-82
2022/03/31 00:22:53;;;;;;;19.30;12.17;;;;;;;8.38;50.84;99489.25;690299;28;1207;-79
2022/03/31 00:23:13;;;;;;;17.55;11.73;;;;;;;8.38;50.82;99492.72;693862;28;1229;-82
2022/03/31 00:23:36;;;;;;;19.03;11.50;;;;;;;8.37;50.83;99488.38;693454;28;962;-82
2022/03/31 00:23:57;;;;;;;20.77;11.60;;;;;;;8.39;50.69;99489.28;690521;28;1915;-82
2022/03/31 00:24:18;;;;;;;21.67;12.00;;;;;;;8.38;51.38;99487.53;690117;28;1445;-83
2022/03/31 00:24:38;;;;;;;19.35;11.88;;;;;;;8.42;50.64;99497.09;687807;28;1078;-82
2022/03/31 00:24:59;;;;;;;19.40;11.77;;;;;;;8.48;50.94;99505.00;686495;28;902;-82
2022/03/31 00:25:19;;;;;;;18.57;11.57;;;;;;;8.48;51.20;99499.81;688358;28;1250;-82
2022/03/31 00:25:40;;;;;;;18.20;11.90;;;;;;;8.41;51.01;99494.50;687934;28;1103;-82
2022/03/31 00:26:01;;;;;;;18.05;11.98;;;;;;;8.41;50.92;99502.31;687770;28;1175;-82
2022/03/31 00:26:22;;;;;;;18.07;12.00;;;;;;;8.46;51.19;99501.53;690782;28;1101;-82
2022/03/31 00:26:43;;;;;;;17.40;12.07;;;;;;;8.35;51.43;99482.25;685063;28;982;-82
2022/03/31 00:27:04;;;;;;;16.17;11.93;;;;;;;8.40;50.83;99496.22;685654;28;1256;-82
2022/03/31 00:27:25;;;;;;;16.55;12.00;;;;;;;8.40;50.62;99491.03;690720;28;1115;-82
2022/03/31 00:27:46;;;;;;;16.27;12.15;;;;;;;8.39;51.26;99490.97;687854;28;1165;-81
2022/03/31 00:28:07;;;;;;;17.25;12.45;;;;;;;8.39;50.86;99490.97;689712;28;1103;-81
2022/03/31 00:28:27;;;;;;;18.48;12.32;;;;;;;8.39;50.74;99486.69;687869;28;1377;-81
2022/03/31 00:28:48;;;;;;;19.40;12.02;;;;;;;8.43;51.11;99491.09;687985;28;784;-82
2022/03/31 00:29:08;;;;;;;21.57;12.50;;;;;;;8.47;51.08;99500.66;686429;28;1108;-82
2022/03/31 00:29:29;;;;;;;20.77;12.75;;;;;;;8.49;51.00;99495.50;687630;28;1336;-81
2022/03/31 00:29:50;;;;;;;22.13;12.97;;;;;;;8.44;50.87;99489.34;685173;28;1015;-81
2022/03/31 00:30:13;;;;;;;19.48;12.50;;;;;;;8.53;50.68;99505.09;685181;28;1206;-81
2022/03/31 00:30:34;;;;;;;19.85;12.23;;;;;;;8.48;50.70;99496.34;682541;29;1739;-82
2022/03/31 00:30:55;;;;;;;22.80;12.40;;;;;;;8.52;50.56;99494.69;682545;29;1457;-82
2022/03/31 00:31:16;;;;;;;23.75;12.48;;;;;;;8.47;50.93;99492.88;687267;28;1076;-82
2022/03/31 00:31:36;;;;;;;23.08;12.07;;;;;;;8.47;50.40;99487.66;685695;28;1204;-82
2022/03/31 00:31:57;;;;;;;20.50;12.25;;;;;;;8.41;50.75;99477.16;682546;29;1244;-81
2022/03/31 00:32:17;;;;;;;20.85;11.80;;;;;;;8.46;51.08;99485.94;687034;28;1323;-81
2022/03/31 00:32:38;;;;;;;20.10;11.60;;;;;;;8.50;50.96;99490.31;687886;28;1024;-82
2022/03/31 00:33:00;;;;;;;20.25;11.10;;;;;;;8.46;50.51;99487.63;687922;28;1209;-82
2022/03/31 00:33:25;;;;;;;21.65;11.30;;;;;;;8.46;50.89;99491.13;683307;28;1062;-81
2022/03/31 00:33:46;;;;;;;20.80;12.10;;;;;;;8.44;50.75;99485.03;685345;28;873;-81
2022/03/31 00:34:06;;;;;;;22.10;12.17;;;;;;;8.41;51.07;99487.56;685120;28;1189;-82
2022/03/31 00:34:28;;;;;;;20.58;11.90;;;;;;;8.43;50.99;99491.09;685289;28;1037;-82
2022/03/31 00:34:48;;;;;;;20.88;11.75;;;;;;;8.45;51.22;99489.38;686399;28;1229;-81
2022/03/31 00:35:12;;;;;;;18.85;11.65;;;;;;;8.54;50.87;99504.22;687253;28;1662;-81
2022/03/31 00:35:34;;;;;;;17.77;11.88;;;;;;;8.47;50.71;99492.88;685194;28;1099;-82
2022/03/31 00:35:54;;;;;;;20.13;11.68;;;;;;;8.44;51.12;99490.22;685095;28;1761;-81
2022/03/31 00:36:15;;;;;;;19.50;11.82;;;;;;;8.49;50.82;99490.31;685156;28;1321;-81
2022/03/31 00:36:35;;;;;;;18.77;11.70;;;;;;;8.42;51.36;99481.50;685124;28;1719;-81
2022/03/31 00:36:56;;;;;;;18.42;12.30;;;;;;;8.43;50.83;99487.59;685100;28;1578;-82
2022/03/31 00:37:22;;;;;;;19.73;12.18;;;;;;;8.42;50.72;99486.72;685826;28;1096;-82
2022/03/31 00:37:45;;;;;;;23.73;12.15;;;;;;;8.42;50.98;99489.31;685062;28;959;-81
2022/03/31 00:38:07;;;;;;;23.30;12.48;;;;;;;8.45;50.82;99483.28;687744;28;1345;-82
2022/03/31 00:38:28;;;;;;;20.23;12.80;;;;;;;8.42;50.77;99489.31;685283;28;1018;-82
2022/03/31 00:39:29;;;;;;;19.17;12.23;;;;;;;8.50;50.64;99486.84;681914;29;1326;-82
2022/03/31 00:39:33;;;;;;;19.40;12.68;;;;;;;8.45;51.07;99488.50;685239;28;897;-82
2022/03/31 00:39:50;;;;;;;19.57;12.60;;;;;;;8.56;50.94;99499.97;686570;28;1109;-82
2022/03/31 00:40:12;;;;;;;17.95;12.40;;;;;;;8.45;51.27;99478.09;689218;28;1241;-82
2022/03/31 00:40:33;;;;;;;20.48;12.45;;;;;;;8.52;50.61;99494.69;688790;28;989;-82
2022/03/31 00:40:53;;;;;;;20.15;12.30;;;;;;;8.46;50.78;99485.03;693292;28;1176;-82
2022/03/31 00:41:14;;;;;;;21.85;12.55;;;;;;;8.53;50.91;99486.03;691245;28;1378;-82
2022/03/31 00:41:36;;;;;;;21.45;12.20;;;;;;;8.44;50.63;99482.44;695168;28;1021;-81
2022/03/31 00:41:57;;;;;;;21.52;12.52;;;;;;;8.44;50.78;99485.03;687876;28;1210;-82
2022/03/31 00:42:17;;;;;;;19.50;12.80;;;;;;;8.43;51.01;99478.09;690485;28;1117;-82
2022/03/31 00:42:40;;;;;;;20.13;13.52;;;;;;;8.55;50.86;99497.31;693150;28;1532;-82
2022/03/31 00:43:00;;;;;;;20.63;13.48;;;;;;;8.45;50.79;99483.28;690435;28;1910;-81
2022/03/31 00:43:21;;;;;;;19.87;13.17;;;;;;;8.45;51.20;99481.59;693418;28;916;-82
2022/03/31 00:43:42;;;;;;;19.80;12.85;;;;;;;8.48;50.61;99486.81;693187;28;1546;-81
2022/03/31 00:44:02;;;;;;;19.85;12.88;;;;;;;8.48;50.65;99480.75;692063;28;1910;-82
2022/03/31 00:44:23;;;;;;;20.33;13.25;;;;;;;8.50;50.96;99486.84;693390;28;1187;-81
2022/03/31 00:44:43;;;;;;;19.90;12.83;;;;;;;8.43;51.09;99485.00;696032;28;1545;-81
2022/03/31 00:45:04;;;;;;;19.50;12.85;;;;;;;8.49;50.79;99501.56;691122;28;1138;-81
2022/03/31 00:45:34;;;;;;;18.33;12.38;;;;;;;8.50;51.02;99485.09;686677;28;1742;-82
2022/03/31 00:45:56;;;;;;;18.17;12.57;;;;;;;8.55;51.00;99484.31;687618;28;1821;-81
2022/03/31 00:46:21;;;;;;;18.23;12.02;;;;;;;8.51;50.55;99478.19;690917;28;1396;-82
2022/03/31 00:46:49;;;;;;;19.88;12.02;;;;;;;8.59;51.00;99489.59;690575;28;1076;-82
2022/03/31 00:47:10;;;;;;;18.60;12.00;;;;;;;8.57;51.07;99485.22;690044;28;1550;-82
2022/03/31 00:47:34;;;;;;;20.23;11.95;;;;;;;8.61;50.89;99480.06;690508;28;1140;-81
2022/03/31 00:47:56;;;;;;;22.08;11.98;;;;;;;8.67;50.86;99494.97;687837;28;1655;-81
2022/03/31 00:48:18;;;;;;;22.45;11.93;;;;;;;8.60;50.52;99483.53;687735;28;1596;-82
2022/03/31 00:48:39;;;;;;;21.38;12.05;;;;;;;8.59;50.35;99480.91;687893;28;1293;-81
2022/03/31 00:49:01;;;;;;;18.10;11.65;;;;;;;8.61;50.80;99474.03;685252;28;799;-81
2022/03/31 00:49:24;;;;;;;17.27;11.68;;;;;;;8.60;50.69;99469.69;685347;28;886;-81
2022/03/31 00:49:45;;;;;;;17.15;11.60;;;;;;;8.59;50.92;99480.91;686187;28;1461;-81
2022/03/31 00:50:06;;;;;;;19.23;11.93;;;;;;;8.68;50.44;99485.41;687836;28;1084;-82
2022/03/31 00:50:28;;;;;;;21.80;12.23;;;;;;;8.61;50.45;99479.22;687770;28;1120;-82
2022/03/31 00:50:49;;;;;;;21.35;12.50;;;;;;;8.58;50.75;99472.25;687942;28;1103;-82
2022/03/31 00:51:09;;;;;;;21.42;12.10;;;;;;;8.58;50.70;99473.94;688116;28;1408;-81
2022/03/31 00:51:30;;;;;;;19.55;11.60;;;;;;;8.56;50.49;99471.34;687865;28;1487;-81
2022/03/31 00:51:53;;;;;;;20.90;12.20;;;;;;;8.63;51.02;99473.22;687842;28;1510;-81
2022/03/31 00:52:14;;;;;;;20.08;12.25;;;;;;;8.65;50.82;99477.56;686994;28;1488;-81
2022/03/31 00:52:34;;;;;;;21.60;12.37;;;;;;;8.60;50.94;99472.28;690745;28;974;-82
2022/03/31 00:52:55;;;;;;;21.15;11.82;;;;;;;8.61;50.75;99474.88;689023;28;1805;-82
2022/03/31 00:53:16;;;;;;;20.48;11.93;;;;;;;8.63;50.57;99482.75;693254;28;1190;-82
2022/03/31 00:53:37;;;;;;;20.80;12.30;;;;;;;8.61;50.91;99474.88;689385;28;1793;-81
2022/03/31 00:53:58;;;;;;;20.25;12.25;;;;;;;8.59;50.46;99476.59;687879;28;866;-81
2022/03/31 00:54:20;;;;;;;18.38;11.70;;;;;;;8.57;50.65;99467.00;684766;28;1247;-81
2022/03/31 00:54:42;;;;;;;16.90;11.90;;;;;;;8.68;50.52;99481.09;687685;28;957;-82
2022/03/31 00:55:05;;;;;;;19.25;12.50;;;;;;;8.60;50.60;99469.69;688123;28;1967;-81
2022/03/31 00:55:26;;;;;;;20.02;12.65;;;;;;;8.60;50.81;99474.88;687864;28;1028;-82
2022/03/31 00:55:47;;;;;;;19.08;12.20;;;;;;;8.62;50.80;99474.06;693170;28;1186;-81
2022/03/31 00:56:09;;;;;;;19.15;12.30;;;;;;;8.66;50.83;99474.13;690352;28;1223;-82
2022/03/31 00:56:31;;;;;;;18.55;12.48;;;;;;;8.64;50.53;99461.09;687835;28;1052;-81
2022/03/31 00:56:52;;;;;;;18.40;12.40;;;;;;;8.59;50.54;99466.19;687795;28;1362;-82
2022/03/31 00:57:13;;;;;;;17.00;12.02;;;;;;;8.73;50.47;99482.03;685924;28;1526;-82
2022/03/31 00:57:34;;;;;;;18.33;11.85;;;;;;;8.60;50.83;99467.06;685076;28;1015;-82
2022/03/31 00:57:55;;;;;;;18.73;12.05;;;;;;;8.61;50.47;99471.41;685068;28;1103;-81
2022/03/31 00:58:18;;;;;;;23.10;12.88;;;;;;;8.71;50.91;99482.84;685118;28;1414;-82
2022/03/31 00:58:39;;;;;;;24.48;13.18;;;;;;;8.60;50.89;99462.72;690472;28;1091;-82
2022/03/31 00:59:01;;;;;;;24.33;12.73;;;;;;;8.62;50.64;99468.00;690626;28;1741;-81
2022/03/31 00:59:21;;;;;;;20.40;12.00;;;;;;;8.53;51.00;99460.03;690421;28;904;-81
2022/03/31 00:59:42;;;;;;;20.13;12.35;;;;;;;8.63;50.96;99474.94;693123;28;1637;-83
2022/03/31 01:00:07;;;;;;;21.00;12.73;;;;;;;8.65;50.69;99475.84;693778;28;1217;-82
2022/03/31 01:00:29;;;;;;;22.45;12.98;;;;;;;8.57;50.57;99462.69;686030;28;1435;-82
2022/03/31 01:00:49;;;;;;;20.23;12.05;;;;;;;8.60;50.85;99454.06;687921;28;838;-82
2022/03/31 01:01:13;;;;;;;19.15;11.52;;;;;;;8.61;50.55;99474.03;687703;28;1206;-82
2022/03/31 01:01:36;;;;;;;20.35;12.15;;;;;;;8.63;50.72;99473.22;686444;28;1560;-81
2022/03/31 01:01:59;;;;;;;20.42;12.40;;;;;;;8.60;50.62;99456.66;687901;28;1348;-82
2022/03/31 01:02:19;;;;;;;19.10;12.40;;;;;;;8.52;50.88;99455.69;690225;28;1265;-81
2022/03/31 01:02:40;;;;;;;22.25;12.15;;;;;;;8.55;50.52;99463.53;690452;28;964;-81
2022/03/31 01:03:02;;;;;;;22.85;12.57;;;;;;;8.56;50.68;99460.94;689569;28;1261;-81
2022/03/31 01:03:22;;;;;;;21.25;12.32;;;;;;;8.52;50.78;99453.94;687809;28;1264;-82
2022/03/31 01:03:43;;;;;;;20.60;12.63;;;;;;;8.57;50.72;99461.81;688516;28;1528;-82
2022/03/31 01:04:05;;;;;;;21.63;12.50;;;;;;;8.58;50.72;99459.25;687023;28;1906;-81
2022/03/31 01:04:28;;;;;;;21.67;12.77;;;;;;;8.61;50.68;99468.81;690431;28;1502;-81
2022/03/31 01:04:50;;;;;;;21.05;12.52;;;;;;;8.48;51.17;99455.63;693244;28;1537;-82
2022/03/31 01:05:14;;;;;;;21.63;12.70;;;;;;;8.50;50.96;99453.91;690537;28;1123;-82
2022/03/31 01:05:39;;;;;;;24.00;12.43;;;;;;;8.55;50.89;99468.72;685221;28;962;-81
2022/03/31 01:05:59;;;;;;;21.52;12.27;;;;;;;8.52;50.96;99455.69;687840;28;859;-81
2022/03/31 01:06:20;;;;;;;18.35;11.77;;;;;;;8.47;51.36;99451.28;690382;28;1254;-82
2022/03/31 01:06:44;;;;;;;17.57;11.50;;;;;;;8.55;51.21;99463.53;690002;28;1694;-82
2022/03/31 01:07:05;;;;;;;22.88;12.43;;;;;;;8.53;51.13;99460.03;693053;28;1213;-81
2022/03/31 01:07:26;;;;;;;24.70;12.70;;;;;;;8.57;51.25;99464.41;695305;28;1357;-82
2022/03/31 01:07:47;;;;;;;22.58;12.70;;;;;;;8.58;50.79;99453.16;690324;28;869;-81
2022/03/31 01:08:08;;;;;;;18.98;12.27;;;;;;;8.48;50.71;99452.16;692705;28;1892;-81
2022/03/31 01:08:29;;;;;;;20.17;12.57;;;;;;;8.59;51.00;99476.59;687778;28;1204;-82
2022/03/31 01:08:50;;;;;;;19.50;12.15;;;;;;;8.47;50.92;99448.69;690517;28;1263;-82
2022/03/31 01:09:13;;;;;;;21.33;12.30;;;;;;;8.55;50.54;99460.91;689836;28;1202;-82
2022/03/31 01:09:33;;;;;;;19.55;11.80;;;;;;;8.52;50.90;99464.34;686887;28;1261;-81
2022/03/31 01:09:56;;;;;;;19.60;12.00;;;;;;;8.56;51.28;99460.06;688724;28;1565;-82
2022/03/31 01:10:17;;;;;;;18.67;12.15;;;;;;;8.41;51.15;99448.56;690348;28;1190;-81
2022/03/31 01:10:37;;;;;;;19.60;12.45;;;;;;;8.54;51.19;99460.03;689604;28;985;-82
2022/03/31 01:10:58;;;;;;;18.83;12.50;;;;;;;8.46;50.90;99449.53;686214;28;792;-82
2022/03/31 01:11:19;;;;;;;18.70;12.30;;;;;;;8.55;50.91;99459.22;682796;28;1235;-81
2022/03/31 01:11:39;;;;;;;18.92;12.80;;;;;;;8.54;50.53;99461.78;687827;28;1075;-81
2022/03/31 01:12:01;;;;;;;19.83;12.95;;;;;;;8.58;50.72;99463.56;687712;28;1281;-82
2022/03/31 01:12:22;;;;;;;21.45;12.73;;;;;;;8.62;51.21;99461.06;686445;28;1098;-82
2022/03/31 01:12:42;;;;;;;20.27;12.40;;;;;;;8.56;51.07;99454.88;687685;28;1244;-81
2022/03/31 01:13:05;;;;;;;19.83;12.13;;;;;;;8.57;51.07;99454.91;690455;28;1230;-81
2022/03/31 01:13:26;;;;;;;16.77;12.10;;;;;;;8.59;50.44;99452.28;687774;28;1395;-82
2022/03/31 01:13:48;;;;;;;19.90;12.57;;;;;;;8.65;50.74;99464.56;690518;28;1159;-81
2022/03/31 01:14:09;;;;;;;19.77;12.80;;;;;;;8.53;50.93;99444.44;690326;28;1222;-82
2022/03/31 01:14:30;;;;;;;20.88;13.13;;;;;;;8.58;51.29;99450.56;690560;28;1384;-82
2022/03/31 01:15:19;;;;;;;19.15;12.75;;;;;;;8.65;50.80;99460.22;690381;28;1702;-81
2022/03/31 01:15:40;;;;;;;20.90;13.00;;;;;;;8.65;51.15;99461.97;689538;28;1436;-81
2022/03/31 01:16:01;;;;;;;19.58;12.40;;;;;;;8.56;51.15;99444.47;690546;28;1166;-82
2022/03/31 01:16:22;;;;;;;18.30;11.83;;;;;;;8.62;51.06;99455.84;689793;28;1150;-81
2022/03/31 01:16:43;;;;;;;19.20;11.82;;;;;;;8.50;51.71;99443.50;686462;28;1793;-81
2022/03/31 01:17:04;;;;;;;20.63;12.10;;;;;;;8.59;51.42;99454.91;687212;28;1272;-81
2022/03/31 01:17:24;;;;;;;18.60;12.45;;;;;;;8.57;51.36;99448.81;687860;28;984;-82
2022/03/31 01:17:47;;;;;;;17.85;12.50;;;;;;;8.52;51.22;99448.75;685100;28;1210;-81
2022/03/31 01:18:08;;;;;;;19.50;12.40;;;;;;;8.52;51.64;99437.50;687076;28;1699;-82
2022/03/31 01:19:08;;;;;;;20.53;12.60;;;;;;;8.65;51.47;99461.97;687829;28;1560;-81
2022/03/31 01:19:30;;;;;;;19.45;11.68;;;;;;;8.54;51.20;99446.19;685559;28;1546;-82
2022/03/31 01:19:51;;;;;;;20.10;11.77;;;;;;;8.55;51.38;99443.59;686450;28;1254;-82
2022/03/31 01:20:16;;;;;;;20.23;12.00;;;;;;;8.57;51.55;99435.81;685060;28;1139;-82
2022/03/31 01:20:36;;;;;;;24.13;13.13;;;;;;;8.56;50.93;99437.56;687857;28;922;-81
2022/03/31 01:20:57;;;;;;;23.30;13.10;;;;;;;8.56;51.45;99434.06;690497;28;1034;-82
2022/03/31 01:21:18;;;;;;;21.27;12.73;;;;;;;8.58;50.77;99442.75;690357;28;1221;-81
2022/03/31 01:21:45;;;;;;;19.20;12.30;;;;;;;8.62;51.27;99449.78;690382;28;1248;-81
2022/03/31 01:22:06;;;;;;;19.65;12.70;;;;;;;8.51;51.15;99426.19;689882;28;1138;-82
2022/03/31 01:22:31;;;;;;;20.07;12.40;;;;;;;8.53;51.49;99434.03;687781;28;1170;-82
2022/03/31 01:22:53;;;;;;;21.33;12.43;;;;;;;8.56;51.34;99440.16;685062;28;1429;-81
2022/03/31 01:23:14;;;;;;;21.60;11.88;;;;;;;8.64;51.53;99455.88;687721;28;1135;-81
2022/03/31 01:23:34;;;;;;;21.30;12.40;;;;;;;8.56;51.69;99434.94;687703;28;1090;-81
2022/03/31 01:24:14;;;;;;;19.87;12.30;;;;;;;8.65;51.15;99452.44;685424;28;1915;-82
2022/03/31 01:24:36;;;;;;;19.83;12.30;;;;;;;8.56;51.44;99441.88;687422;28;1097;-82
2022/03/31 01:24:58;;;;;;;19.92;12.38;;;;;;;8.59;51.66;99444.50;687857;28;855;-81
2022/03/31 01:25:19;;;;;;;21.10;12.57;;;;;;;8.56;51.21;99439.25;692002;28;1237;-81
2022/03/31 01:25:40;;;;;;;21.58;12.68;;;;;;;8.55;51.52;99432.31;690512;28;1308;-81
2022/03/31 01:26:01;;;;;;;23.20;13.35;;;;;;;8.63;51.58;99446.34;690567;28;1157;-82
2022/03/31 01:26:22;;;;;;;20.55;13.30;;;;;;;8.53;51.28;99436.63;693293;28;831;-82
2022/03/31 01:26:43;;;;;;;19.43;13.07;;;;;;;8.55;51.38;99433.22;692964;28;1747;-81
2022/03/31 01:27:07;;;;;;;17.65;12.77;;;;;;;8.58;51.44;99438.44;690752;28;1580;-81
2022/03/31 01:27:27;;;;;;;17.23;12.57;;;;;;;8.55;51.64;99432.31;690453;28;1456;-82
2022/03/31 01:27:48;;;;;;;20.75;13.10;;;;;;;8.61;51.64;99438.47;687673;28;1560;-82
2022/03/31 01:28:09;;;;;;;23.60;13.17;;;;;;;8.58;51.52;99433.25;689301;28;1300;-81
2022/03/31 01:28:29;;;;;;;23.88;13.20;;;;;;;8.55;51.14;99432.31;693192;28;1266;-82
2022/03/31 01:28:51;;;;;;;21.03;12.97;;;;;;;8.56;51.54;99434.06;686536;28;1016;-82
2022/03/31 01:29:12;;;;;;;20.85;13.18;;;;;;;8.60;51.87;99441.94;691920;28;1170;-81
2022/03/31 01:29:32;;;;;;;21.17;13.07;;;;;;;8.58;51.76;99432.34;689942;28;1229;-82
2022/03/31 01:29:53;;;;;;;21.97;13.30;;;;;;;8.54;52.01;99441.81;692931;28;728;-81
2022/03/31 01:30:17;;;;;;;21.08;13.15;;;;;;;8.56;51.59;99436.66;691455;28;1486;-82
2022/03/31 01:30:38;;;;;;;22.75;13.68;;;;;;;8.57;51.55;99441.00;689992;28;1179;-81
2022/03/31 01:30:59;;;;;;;22.48;13.43;;;;;;;8.50;51.88;99430.50;685583;28;1676;-81
2022/03/31 01:31:20;;;;;;;20.90;13.25;;;;;;;8.59;52.11;99444.50;689993;28;1307;-82
2022/03/31 01:31:40;;;;;;;20.70;13.00;;;;;;;8.58;51.62;99437.56;692640;28;1020;-81
2022/03/31 01:32:01;;;;;;;19.90;12.45;;;;;;;8.55;52.14;99440.13;690560;28;1099;-82
2022/03/31 01:32:22;;;;;;;19.70;12.20;;;;;;;8.57;51.85;99441.91;687837;28;1029;-81
2022/03/31 01:32:44;;;;;;;20.13;12.20;;;;;;;8.60;51.97;99446.28;687768;28;966;-82
2022/03/31 01:33:05;;;;;;;20.05;12.80;;;;;;;8.62;52.03;99447.19;690352;28;1237;-81
2022/03/31 01:33:25;;;;;;;19.70;12.80;;;;;;;8.58;52.09;99441.03;687641;28;1117;-81
2022/03/31 01:33:46;;;;;;;20.13;13.15;;;;;;;8.57;51.99;99436.69;687838;28;1545;-81
2022/03/31 01:34:07;;;;;;;21.10;13.23;;;;;;;8.59;51.48;99439.28;687655;28;1264;-81
2022/03/31 01:34:28;;;;;;;23.73;13.45;;;;;;;8.57;51.89;99435.81;687683;28;1016;-82
2022/03/31 01:34:48;;;;;;;21.45;13.23;;;;;;;8.56;52.15;99434.94;685070;28;1067;-81
2022/03/31 01:35:10;;;;;;;20.77;13.00;;;;;;;8.55;51.51;99429.72;687397;28;1513;-81
2022/03/31 01:35:30;;;;;;;17.88;12.68;;;;;;;8.59;51.96;99442.78;687706;28;1106;-82
2022/03/31 01:35:51;;;;;;;19.20;12.40;;;;;;;8.55;51.71;99434.91;687423;28;1538;-82
2022/03/31 01:36:25;;;;;;;17.23;12.00;;;;;;;8.55;52.11;99432.31;690387;28;1142;-81
2022/03/31 01:36:46;;;;;;;19.40;12.20;;;;;;;8.57;51.90;99446.22;690377;28;1099;-82
2022/03/31 01:37:07;;;;;;;19.30;12.40;;;;;;;8.54;52.14;99430.56;688411;28;1233;-82
2022/03/31 01:37:28;;;;;;;18.73;12.18;;;;;;;8.57;51.75;99441.00;690459;28;1027;-81
2022/03/31 01:37:48;;;;;;;15.93;11.80;;;;;;;8.59;52.00;99436.69;685199;28;744;-82
2022/03/31 01:38:09;;;;;;;21.17;12.45;;;;;;;8.59;52.05;99437.59;682288;28;1232;-82
2022/03/31 01:38:36;;;;;;;21.83;12.60;;;;;;;8.55;52.18;99430.59;685085;28;1679;-81
2022/03/31 01:38:57;;;;;;;22.17;12.48;;;;;;;8.56;51.77;99429.75;687821;28;926;-81
2022/03/31 01:39:18;;;;;;;19.88;12.30;;;;;;;8.52;51.82;99427.09;689761;28;1262;-81
2022/03/31 01:39:39;;;;;;;21.10;12.60;;;;;;;8.53;51.90;99423.63;689865;28;942;-81
2022/03/31 01:40:00;;;;;;;22.08;12.65;;;;;;;8.60;52.07;99441.94;693182;28;852;-82
2022/03/31 01:40:21;;;;;;;21.83;12.88;;;;;;;8.56;52.21;99431.47;690437;28;1028;-81
2022/03/31 01:40:41;;;;;;;21.90;12.97;;;;;;;8.59;52.09;99440.19;687873;28;1101;-81
2022/03/31 01:41:02;;;;;;;20.95;12.85;;;;;;;8.57;52.23;99441.00;684881;28;1318;-82
2022/03/31 01:41:23;;;;;;;21.92;12.82;;;;;;;8.58;51.88;99438.44;693047;28;831;-82
2022/03/31 01:41:44;;;;;;;21.23;12.55;;;;;;;8.49;51.82;99427.91;690378;28;1213;-81
2022/03/31 01:42:05;;;;;;;22.25;12.80;;;;;;;8.48;52.13;99424.41;688218;28;1195;-82
2022/03/31 01:42:27;;;;;;;21.00;12.30;;;;;;;8.60;51.83;99441.94;687687;28;1683;-82
2022/03/31 01:42:48;;;;;;;22.88;12.88;;;;;;;8.57;51.88;99430.59;687876;28;792;-81
2022/03/31 01:43:09;;;;;;;21.80;12.73;;;;;;;8.52;51.86;99424.47;688654;28;1052;-81
2022/03/31 01:43:30;;;;;;;21.67;12.90;;;;;;;8.53;52.06;99421.03;687780;28;1230;-81
2022/03/31 01:43:51;;;;;;;20.23;12.57;;;;;;;8.52;51.77;99422.75;687749;28;1035;-82
2022/03/31 01:44:12;;;;;;;21.15;12.85;;;;;;;8.50;52.10;99429.66;688996;28;2242;-81
2022/03/31 01:44:40;;;;;;;22.63;13.90;;;;;;;8.55;52.12;99434.91;690520;28;762;-82
2022/03/31 01:45:01;;;;;;;23.83;13.50;;;;;;;8.61;51.98;99440.22;687361;28;1781;-81